Time;durP1;ratioP1;P1;durP2;ratioP2;P2;SDS_P1;SDS_P2;PMS_P1;PMS_P2;Temp;Humidity;BMP_temperature;BMP_pressure;BME280_temperature;BME280_humidity;BME280_pressure;Samples;Min_cycle;Max_cycle;Signal;HPM_P1;HPM_P2
2022/09/08 00:01:17;;;;;;;;;;;;;;;;;;5073520;28;933;-74
2022/09/08 00:03:43;;;;;;;;;;;;;;;;;;5091493;28;1796;-75
2022/09/08 00:06:11;;;;;;;;;;;;;;;;;;5091900;28;1123;-75
2022/09/08 00:08:37;;;;;;;;;;;;;;;;;;5091851;28;1075;-74
2022/09/08 00:11:06;;;;;;;;;;;;;;;;;;5091509;28;1134;-74
2022/09/08 00:13:32;;;;;;;;;;;;;;;;;;5091265;28;1370;-74
2022/09/08 00:16:01;;;;;;;;;;;;;;;;;;5091578;28;964;-75
2022/09/08 00:18:27;;;;;;;;;;;;;;;;;;5091436;28;1976;-72
2022/09/08 00:20:53;;;;;;;;;;;;;;;;;;5091580;28;1075;-75
2022/09/08 00:23:19;;;;;;;;;;;;;;;;;;5091456;28;1080;-74
2022/09/08 00:25:46;;;;;;;;;;;;;;;;;;5091323;28;1411;-74
2022/09/08 00:28:13;;;;;;;;;;;;;;;;;;5073456;28;1128;-74
2022/09/08 00:30:39;;;;;;;;;;;;;;;;;;5091378;28;1056;-75
2022/09/08 00:33:06;;;;;;;;;;;;;;;;;;5090966;28;1075;-75
2022/09/08 00:35:32;;;;;;;;;;;;;;;;;;5091328;28;1295;-74
2022/09/08 00:37:58;;;;;;;;;;;;;;;;;;5093362;28;1969;-74
2022/09/08 00:40:25;;;;;;;;;;;;;;;;;;5098199;28;1505;-74
2022/09/08 00:42:58;;;;;;;;;;;;;;;;;;5095030;28;1078;-74
2022/09/08 00:45:25;;;;;;;;;;;;;;;;;;5077507;28;1485;-75
2022/09/08 00:47:54;;;;;;;;;;;;;;;;;;5095289;28;1067;-74
2022/09/08 00:50:21;;;;;;;;;;;;;;;;;;5095227;28;1016;-75
2022/09/08 00:52:50;;;;;;;;;;;;;;;;;;5095328;28;928;-74
2022/09/08 00:55:17;;;;;;;;;;;;;;;;;;5095790;28;1316;-75
2022/09/08 00:57:43;;;;;;;;;;;;;;;;;;5095321;28;1979;-75
2022/09/08 01:00:10;;;;;;;;;;;;;;;;;;5095180;28;948;-74
2022/09/08 01:02:38;;;;;;;;;;;;;;;;;;5094860;28;992;-74
2022/09/08 01:05:05;;;;;;;;;;;;;;;;;;5095072;28;1310;-74
2022/09/08 01:13:18;;;;;;;;;;;;;;;;;;5032245;28;1127;-74
2022/09/08 01:15:44;;;;;;;;;;;;;;;;;;5079967;28;1329;-75
2022/09/08 01:18:12;;;;;;;;;;;;;;;;;;5094645;28;1981;-74
2022/09/08 01:20:40;;;;;;;;;;;;;;;;;;5095087;28;735;-74
2022/09/08 01:23:14;;;;;;;;;;;;;;;;;;5094449;28;1090;-74
2022/09/08 01:26:06;;;;;;;;;;;;;;;;;;5076455;28;1444;-74
2022/09/08 01:28:35;;;;;;;;;;;;;;;;;;5094678;28;1095;-73
2022/09/08 01:31:01;;;;;;;;;;;;;;;;;;5076094;28;1252;-74
2022/09/08 01:33:28;;;;;;;;;;;;;;;;;;5094137;28;1259;-72
2022/09/08 01:35:55;;;;;;;;;;;;;;;;;;5094310;28;1097;-74
2022/09/08 01:38:21;;;;;;;;;;;;;;;;;;5076260;28;1921;-74
2022/09/08 01:40:47;;;;;;;;;;;;;;;;;;5094224;28;1079;-74
2022/09/08 01:43:13;;;;;;;;;;;;;;;;;;5094063;28;785;-75
2022/09/08 01:45:41;;;;;;;;;;;;;;;;;;5076115;28;1336;-74
2022/09/08 01:48:07;;;;;;;;;;;;;;;;;;5094129;28;1092;-75
2022/09/08 01:50:34;;;;;;;;;;;;;;;;;;5093391;28;1079;-74
2022/09/08 01:53:00;;;;;;;;;;;;;;;;;;5093751;28;958;-74
2022/09/08 01:55:26;;;;;;;;;;;;;;;;;;5094135;28;1292;-74
2022/09/08 01:57:52;;;;;;;;;;;;;;;;;;5093889;28;1977;-73
2022/09/08 02:00:18;;;;;;;;;;;;;;;;;;5093932;28;1028;-74
2022/09/08 02:02:46;;;;;;;;;;;;;;;;;;5093490;28;901;-75
2022/09/08 02:05:13;;;;;;;;;;;;;;;;;;5094047;28;1355;-74
2022/09/08 02:07:39;;;;;;;;;;;;;;;;;;5094052;28;1025;-74
2022/09/08 02:10:07;;;;;;;;;;;;;;;;;;5093878;28;937;-74
2022/09/08 02:12:33;;;;;;;;;;;;;;;;;;5093555;28;842;-74
2022/09/08 02:15:00;;;;;;;;;;;;;;;;;;5093572;28;1269;-74
2022/09/08 02:17:27;;;;;;;;;;;;;;;;;;5093577;28;1099;-74
2022/09/08 02:19:55;;;;;;;;;;;;;;;;;;5093288;28;1981;-74
2022/09/08 02:22:21;;;;;;;;;;;;;;;;;;5093420;28;1092;-75
2022/09/08 02:24:47;;;;;;;;;;;;;;;;;;5075549;28;1395;-75
2022/09/08 02:27:13;;;;;;;;;;;;;;;;;;5093821;28;1146;-75
2022/09/08 02:29:39;;;;;;;;;;;;;;;;;;5093430;28;787;-76
2022/09/08 02:32:06;;;;;;;;;;;;;;;;;;5092856;28;1083;-75
2022/09/08 02:34:32;;;;;;;;;;;;;;;;;;5093235;28;1306;-75
2022/09/08 02:37:00;;;;;;;;;;;;;;;;;;5093472;28;762;-71
2022/09/08 02:39:26;;;;;;;;;;;;;;;;;;5053823;22;3427;-73
2022/09/08 02:41:53;;;;;;;;;;;;;;;;;;4970190;28;1116;-72
2022/09/08 02:44:19;;;;;;;;;;;;;;;;;;4971181;28;1511;-72
2022/09/08 02:46:45;;;;;;;;;;;;;;;;;;4970953;28;783;-72
2022/09/08 02:49:12;;;;;;;;;;;;;;;;;;4971043;28;1339;-73
2022/09/08 02:51:38;;;;;;;;;;;;;;;;;;4970636;28;1115;-72
2022/09/08 02:54:06;;;;;;;;;;;;;;;;;;4971108;28;984;-71
2022/09/08 02:56:32;;;;;;;;;;;;;;;;;;4986696;28;1179;-73
2022/09/08 02:58:58;;;;;;;;;;;;;;;;;;4990388;28;1978;-72
2022/09/08 03:01:25;;;;;;;;;;;;;;;;;;4988683;28;1064;-73
2022/09/08 03:03:51;;;;;;;;;;;;;;;;;;4990316;28;990;-73
2022/09/08 03:06:17;;;;;;;;;;;;;;;;;;4973102;28;1238;-74
2022/09/08 03:08:43;;;;;;;;;;;;;;;;;;4989980;28;1373;-72
2022/09/08 03:11:11;;;;;;;;;;;;;;;;;;4990191;28;788;-72
2022/09/08 03:13:39;;;;;;;;;;;;;;;;;;4989673;28;965;-73
2022/09/08 03:16:05;;;;;;;;;;;;;;;;;;4990346;28;965;-74
2022/09/08 03:18:32;;;;;;;;;;;;;;;;;;4990253;28;1975;-72
2022/09/08 03:20:59;;;;;;;;;;;;;;;;;;4990139;28;1012;-72
2022/09/08 03:23:25;;;;;;;;;;;;;;;;;;4989939;28;1052;-72
2022/09/08 03:25:52;;;;;;;;;;;;;;;;;;4989808;28;1120;-72
2022/09/08 03:28:19;;;;;;;;;;;;;;;;;;4989794;28;1323;-73
2022/09/08 03:30:46;;;;;;;;;;;;;;;;;;4972204;28;1115;-72
2022/09/08 03:33:12;;;;;;;;;;;;;;;;;;4989448;28;958;-72
2022/09/08 03:35:38;;;;;;;;;;;;;;;;;;4989700;28;1252;-72
2022/09/08 03:38:06;;;;;;;;;;;;;;;;;;4989497;28;1922;-73
2022/09/08 03:40:34;;;;;;;;;;;;;;;;;;4989436;28;1376;-73
2022/09/08 03:43:00;;;;;;;;;;;;;;;;;;4989148;28;814;-73
2022/09/08 03:45:28;;;;;;;;;;;;;;;;;;4989519;28;801;-73
2022/09/08 03:47:55;;;;;;;;;;;;;;;;;;4970988;28;1515;-75
2022/09/08 03:50:21;;;;;;;;;;;;;;;;;;4974065;28;1468;-72
2022/09/08 03:52:47;;;;;;;;;;;;;;;;;;5011705;28;1280;-73
2022/09/08 03:55:13;;;;;;;;;;;;;;;;;;4969994;28;938;-73
2022/09/08 03:57:39;;;;;;;;;;;;;;;;;;4968767;28;1465;-73
2022/09/08 04:00:06;;;;;;;;;;;;;;;;;;5019232;28;1921;-73
2022/09/08 04:02:39;;;;;;;;;;;;;;;;;;5040675;28;1626;-74
2022/09/08 04:05:05;;;;;;;;;;;;;;;;;;4974548;28;1535;-76
2022/09/08 04:07:33;;;;;;;;;;;;;;;;;;5002125;28;1468;-74
2022/09/08 04:09:59;;;;;;;;;;;;;;;;;;5056863;28;1480;-74
2022/09/08 04:12:26;;;;;;;;;;;;;;;;;;5070860;28;1138;-74
2022/09/08 04:14:52;;;;;;;;;;;;;;;;;;5046877;28;1461;-74
2022/09/08 04:17:19;;;;;;;;;;;;;;;;;;4998722;28;1798;-74
2022/09/08 04:19:48;;;;;;;;;;;;;;;;;;4976279;28;1985;-74
2022/09/08 04:22:15;;;;;;;;;;;;;;;;;;4993500;28;1485;-73
2022/09/08 04:24:41;;;;;;;;;;;;;;;;;;4969895;28;1146;-74
2022/09/08 04:27:07;;;;;;;;;;;;;;;;;;4952342;28;1121;-74
2022/09/08 04:29:34;;;;;;;;;;;;;;;;;;5008138;28;1840;-73
2022/09/08 04:32:00;;;;;;;;;;;;;;;;;;4997129;28;1461;-73
2022/09/08 04:34:26;;;;;;;;;;;;;;;;;;5053624;28;1464;-74
2022/09/08 04:36:54;;;;;;;;;;;;;;;;;;4969583;28;1500;-74
2022/09/08 04:39:20;;;;;;;;;;;;;;;;;;4969339;28;1927;-73
2022/09/08 04:41:47;;;;;;;;;;;;;;;;;;4969334;28;994;-74
2022/09/08 04:44:13;;;;;;;;;;;;;;;;;;4969571;28;1076;-73
2022/09/08 04:46:39;;;;;;;;;;;;;;;;;;4969569;28;1173;-74
2022/09/08 04:49:05;;;;;;;;;;;;;;;;;;4969034;28;1376;-74
2022/09/08 04:51:32;;;;;;;;;;;;;;;;;;4951865;28;1274;-74
2022/09/08 04:54:00;;;;;;;;;;;;;;;;;;4969509;28;1103;-74
2022/09/08 04:56:26;;;;;;;;;;;;;;;;;;4969038;28;1188;-74
2022/09/08 04:58:53;;;;;;;;;;;;;;;;;;4968787;28;1910;-74
2022/09/08 05:01:20;;;;;;;;;;;;;;;;;;4968639;28;1318;-74
2022/09/08 05:03:47;;;;;;;;;;;;;;;;;;4969001;28;1327;-74
2022/09/08 05:06:13;;;;;;;;;;;;;;;;;;4968945;28;1243;-74
2022/09/08 05:08:41;;;;;;;;;;;;;;;;;;4968520;28;1463;-74
2022/09/08 05:11:09;;;;;;;;;;;;;;;;;;4968797;28;1275;-74
2022/09/08 05:13:35;;;;;;;;;;;;;;;;;;4958689;28;1318;-73
2022/09/08 05:16:02;;;;;;;;;;;;;;;;;;4968916;28;1235;-73
2022/09/08 05:18:28;;;;;;;;;;;;;;;;;;4969124;28;1312;-75
2022/09/08 05:20:54;;;;;;;;;;;;;;;;;;4968885;28;1972;-74
2022/09/08 05:23:21;;;;;;;;;;;;;;;;;;4968832;28;1168;-74
2022/09/08 05:25:53;;;;;;;;;;;;;;;;;;4971560;28;1209;-74
2022/09/08 05:28:21;;;;;;;;;;;;;;;;;;4964824;28;1395;-73
2022/09/08 05:30:47;;;;;;;;;;;;;;;;;;4971783;28;1224;-74
2022/09/08 05:33:13;;;;;;;;;;;;;;;;;;4971358;28;1323;-74
2022/09/08 05:35:39;;;;;;;;;;;;;;;;;;4961951;28;1316;-74
2022/09/08 05:38:06;;;;;;;;;;;;;;;;;;4974942;28;1319;-74
2022/09/08 05:40:35;;;;;;;;;;;;;;;;;;4974925;28;1984;-74
2022/09/08 05:43:01;;;;;;;;;;;;;;;;;;4973550;28;1346;-73
2022/09/08 05:45:28;;;;;;;;;;;;;;;;;;4972490;28;1271;-73
2022/09/08 05:47:55;;;;;;;;;;;;;;;;;;4972153;28;1345;-74
2022/09/08 05:50:21;;;;;;;;;;;;;;;;;;4971792;28;1315;-74
2022/09/08 05:52:47;;;;;;;;;;;;;;;;;;4971105;28;1311;-74
2022/09/08 05:55:14;;;;;;;;;;;;;;;;;;4973547;28;1284;-73
2022/09/08 05:57:40;;;;;;;;;;;;;;;;;;4971482;28;1314;-74
2022/09/08 06:00:07;;;;;;;;;;;;;;;;;;4971377;28;1915;-74
2022/09/08 06:02:37;;;;;;;;;;;;;;;;;;4968444;28;1150;-75
2022/09/08 06:05:03;;;;;;;;;;;;;;;;;;4960871;28;1331;-74
2022/09/08 06:07:31;;;;;;;;;;;;;;;;;;4971613;28;1323;-74
2022/09/08 06:09:57;;;;;;;;;;;;;;;;;;4968773;28;1487;-74
2022/09/08 06:12:24;;;;;;;;;;;;;;;;;;4971059;28;1263;-74
2022/09/08 06:14:50;;;;;;;;;;;;;;;;;;4962338;28;1416;-74
2022/09/08 06:17:16;;;;;;;;;;;;;;;;;;4971088;28;1291;-74
2022/09/08 06:19:43;;;;;;;;;;;;;;;;;;4970951;28;1906;-74
2022/09/08 06:22:10;;;;;;;;;;;;;;;;;;4970684;28;1319;-73
2022/09/08 06:24:36;;;;;;;;;;;;;;;;;;4952048;29;1485;-72
2022/09/08 06:27:04;;;;;;;;;;;;;;;;;;4952016;29;988;-74
2022/09/08 06:29:36;;;;;;;;;;;;;;;;;;4952239;28;1311;-75
2022/09/08 06:32:03;;;;;;;;;;;;;;;;;;4951035;28;1434;-76
2022/09/08 06:34:30;;;;;;;;;;;;;;;;;;4953881;28;1306;-76
2022/09/08 06:36:59;;;;;;;;;;;;;;;;;;4969256;28;1651;-76
2022/09/08 06:39:26;;;;;;;;;;;;;;;;;;4970487;28;2262;-74
2022/09/08 06:41:55;;;;;;;;;;;;;;;;;;4959045;28;1300;-75
2022/09/08 06:44:22;;;;;;;;;;;;;;;;;;4957088;28;1223;-74
2022/09/08 06:46:48;;;;;;;;;;;;;;;;;;4969466;28;1219;-74
2022/09/08 06:49:14;;;;;;;;;;;;;;;;;;4969391;28;1383;-74
2022/09/08 06:51:43;;;;;;;;;;;;;;;;;;4959583;28;1255;-73
2022/09/08 06:54:13;;;;;;;;;;;;;;;;;;4975641;28;1805;-74
2022/09/08 06:56:42;;;;;;;;;;;;;;;;;;4969279;28;1402;-75
2022/09/08 06:59:08;;;;;;;;;;;;;;;;;;4969404;28;1478;-74
2022/09/08 07:01:36;;;;;;;;;;;;;;;;;;4969720;28;1281;-74
2022/09/08 07:04:05;;;;;;;;;;;;;;;;;;4970276;28;1147;-74
2022/09/08 07:06:33;;;;;;;;;;;;;;;;;;4968175;28;1607;-74
2022/09/08 07:09:02;;;;;;;;;;;;;;;;;;4969589;28;1344;-74
2022/09/08 07:11:37;;;;;;;;;;;;;;;;;;4969446;28;776;-75
2022/09/08 07:14:05;;;;;;;;;;;;;;;;;;4969580;28;1123;-75
2022/09/08 07:16:33;;;;;;;;;;;;;;;;;;4952304;28;1490;-74
2022/09/08 07:19:00;;;;;;;;;;;;;;;;;;4969406;28;1404;-74
2022/09/08 07:21:28;;;;;;;;;;;;;;;;;;4952007;28;1994;-75
2022/09/08 07:23:55;;;;;;;;;;;;;;;;;;4952153;28;1628;-74
2022/09/08 07:26:21;;;;;;;;;;;;;;;;;;4970281;28;1088;-74
2022/09/08 07:28:50;;;;;;;;;;;;;;;;;;4977022;28;1377;-74
2022/09/08 07:31:18;;;;;;;;;;;;;;;;;;4960915;28;1329;-73
2022/09/08 07:33:46;;;;;;;;;;;;;;;;;;4969256;28;1024;-74
2022/09/08 07:36:13;;;;;;;;;;;;;;;;;;4987163;28;1229;-74
2022/09/08 07:38:40;;;;;;;;;;;;;;;;;;4988362;28;1388;-74
2022/09/08 07:41:07;;;;;;;;;;;;;;;;;;4988412;28;1919;-74
2022/09/08 07:43:33;;;;;;;;;;;;;;;;;;4988349;28;1005;-75
2022/09/08 07:46:04;;;;;;;;;;;;;;;;;;4988608;28;1056;-73
2022/09/08 07:48:31;;;;;;;;;;;;;;;;;;4987942;28;1297;-75
2022/09/08 07:51:01;;;;;;;;;;;;;;;;;;4969538;28;1217;-74
2022/09/08 07:53:31;;;;;;;;;;;;;;;;;;4969353;28;1072;-74
2022/09/08 07:55:59;;;;;;;;;;;;;;;;;;4969123;28;811;-74
2022/09/08 07:58:27;;;;;;;;;;;;;;;;;;4969418;28;1403;-75
2022/09/08 08:00:55;;;;;;;;;;;;;;;;;;4968797;28;1977;-74
2022/09/08 08:03:30;;;;;;;;;;;;;;;;;;4968739;28;882;-75
2022/09/08 08:05:58;;;;;;;;;;;;;;;;;;4968903;28;866;-74
2022/09/08 08:08:26;;;;;;;;;;;;;;;;;;4969045;28;1345;-75
2022/09/08 08:10:55;;;;;;;;;;;;;;;;;;4969014;28;1142;-74
2022/09/08 08:13:24;;;;;;;;;;;;;;;;;;4951662;28;1332;-74
2022/09/08 08:15:52;;;;;;;;;;;;;;;;;;4968911;28;1135;-74
2022/09/08 08:18:19;;;;;;;;;;;;;;;;;;4968831;28;1318;-73
2022/09/08 08:20:50;;;;;;;;;;;;;;;;;;4968370;28;1908;-74
2022/09/08 08:23:23;;;;;;;;;;;;;;;;;;4968277;28;1107;-75
2022/09/08 08:25:50;;;;;;;;;;;;;;;;;;4967887;28;1191;-75
2022/09/08 08:28:17;;;;;;;;;;;;;;;;;;4967859;28;1480;-75
2022/09/08 08:30:44;;;;;;;;;;;;;;;;;;4968244;28;945;-74
2022/09/08 08:33:11;;;;;;;;;;;;;;;;;;4968082;28;949;-75
2022/09/08 08:35:40;;;;;;;;;;;;;;;;;;4968527;28;810;-74
2022/09/08 08:38:07;;;;;;;;;;;;;;;;;;4968743;28;1000;-75
2022/09/08 08:40:36;;;;;;;;;;;;;;;;;;4968651;28;1922;-75
2022/09/08 08:43:06;;;;;;;;;;;;;;;;;;4968130;28;886;-75
2022/09/08 08:45:33;;;;;;;;;;;;;;;;;;4967023;28;1451;-74
2022/09/08 08:48:13;;;;;;;;;;;;;;;;;;4986509;28;1424;-74
2022/09/08 08:50:46;;;;;;;;;;;;;;;;;;4979894;28;1345;-73
2022/09/08 08:53:34;;;;;;;;;;;;;;;;;;4950640;28;1292;-74
2022/09/08 08:56:04;;;;;;;;;;;;;;;;;;4982571;28;1162;-73
2022/09/08 08:58:34;;;;;;;;;;;;;;;;;;4988112;28;1326;-75
2022/09/08 09:01:03;;;;;;;;;;;;;;;;;;4975082;28;1914;-74
2022/09/08 09:03:34;;;;;;;;;;;;;;;;;;4991175;28;1134;-75
2022/09/08 09:06:30;;;;;;;;;;;;;;;;;;4975564;28;1219;-74
2022/09/08 09:09:06;;;;;;;;;;;;;;;;;;4972732;28;1400;-76
2022/09/08 09:11:51;;;;;;;;;;;;;;;;;;4955134;28;1088;-73
2022/09/08 09:14:36;;;;;;;;;;;;;;;;;;4952273;29;1072;-76
2022/09/08 09:17:09;;;;;;;;;;;;;;;;;;4955369;29;819;-76
2022/09/08 09:19:50;;;;;;;;;;;;;;;;;;4965207;28;1330;-77
2022/09/08 09:22:21;;;;;;;;;;;;;;;;;;4979578;28;1903;-74
2022/09/08 09:24:52;;;;;;;;;;;;;;;;;;4971711;28;1142;-75
2022/09/08 09:27:26;;;;;;;;;;;;;;;;;;4971209;28;1084;-75
2022/09/08 09:29:56;;;;;;;;;;;;;;;;;;4951585;28;1397;-76
2022/09/08 09:32:30;;;;;;;;;;;;;;;;;;4970431;28;1076;-75
2022/09/08 09:35:15;;;;;;;;;;;;;;;;;;4970421;28;1417;-74
2022/09/08 09:37:59;;;;;;;;;;;;;;;;;;4967550;28;1240;-72
2022/09/08 09:40:28;;;;;;;;;;;;;;;;;;4969293;28;1911;-76
2022/09/08 09:43:03;;;;;;;;;;;;;;;;;;4970673;28;968;-75
2022/09/08 09:45:34;;;;;;;;;;;;;;;;;;4969756;28;1261;-75
2022/09/08 09:48:09;;;;;;;;;;;;;;;;;;4969751;28;1222;-75
2022/09/08 09:50:41;;;;;;;;;;;;;;;;;;4987043;28;1334;-76
2022/09/08 09:53:10;;;;;;;;;;;;;;;;;;4990455;28;914;-73
2022/09/08 09:55:42;;;;;;;;;;;;;;;;;;4973083;28;1144;-74
2022/09/08 09:58:14;;;;;;;;;;;;;;;;;;4972910;28;1044;-75
2022/09/08 10:00:50;;;;;;;;;;;;;;;;;;4989810;28;1985;-75
2022/09/08 10:03:26;;;;;;;;;;;;;;;;;;4990154;28;989;-73
2022/09/08 10:06:14;;;;;;;;;;;;;;;;;;4970183;28;1204;-77
2022/09/08 10:08:55;;;;;;;;;;;;;;;;;;4970077;28;1367;-75
2022/09/08 10:11:31;;;;;;;;;;;;;;;;;;4969857;28;1036;-74
2022/09/08 10:14:15;;;;;;;;;;;;;;;;;;4971020;28;1079;-75
2022/09/08 10:17:02;;;;;;;;;;;;;;;;;;4990223;28;1112;-74
2022/09/08 10:19:44;;;;;;;;;;;;;;;;;;4973495;28;1301;-75
2022/09/08 10:22:23;;;;;;;;;;;;;;;;;;4970145;28;1922;-75
2022/09/08 10:25:08;;;;;;;;;;;;;;;;;;4970518;28;1068;-75
2022/09/08 10:27:47;;;;;;;;;;;;;;;;;;4970639;28;1020;-75
2022/09/08 10:30:17;;;;;;;;;;;;;;;;;;4970548;28;1408;-74
2022/09/08 10:32:58;;;;;;;;;;;;;;;;;;4959179;28;1180;-74
2022/09/08 10:35:29;;;;;;;;;;;;;;;;;;4953563;28;993;-74
2022/09/08 10:38:05;;;;;;;;;;;;;;;;;;4969906;28;1321;-75
2022/09/08 10:40:33;;;;;;;;;;;;;;;;;;4970150;28;1918;-75
2022/09/08 10:43:03;;;;;;;;;;;;;;;;;;4969518;28;1076;-74
2022/09/08 10:45:34;;;;;;;;;;;;;;;;;;4970048;28;1076;-73
2022/09/08 10:48:11;;;;;;;;;;;;;;;;;;4970280;28;1109;-75
2022/09/08 10:50:38;;;;;;;;;;;;;;;;;;4986242;28;1435;-77
2022/09/08 10:53:19;;;;;;;;;;;;;;;;;;4988932;28;863;-75
2022/09/08 10:56:03;;;;;;;;;;;;;;;;;;5000755;28;1147;-75
2022/09/08 10:58:37;;;;;;;;;;;;;;;;;;4970049;28;1345;-75
2022/09/08 11:01:07;;;;;;;;;;;;;;;;;;4969886;28;1974;-75
2022/09/08 11:03:40;;;;;;;;;;;;;;;;;;4968754;28;1052;-74
2022/09/08 11:06:06;;;;;;;;;;;;;;;;;;4969897;28;1063;-75
2022/09/08 11:08:37;;;;;;;;;;;;;;;;;;4969717;28;1331;-75
2022/09/08 11:11:08;;;;;;;;;;;;;;;;;;4963924;28;1268;-74
2022/09/08 11:13:37;;;;;;;;;;;;;;;;;;4968741;28;1108;-73
2022/09/08 11:16:22;;;;;;;;;;;;;;;;;;4969367;28;1075;-74
2022/09/08 11:18:53;;;;;;;;;;;;;;;;;;4969255;28;1424;-73
2022/09/08 11:21:21;;;;;;;;;;;;;;;;;;4968468;28;1950;-72
2022/09/08 11:23:51;;;;;;;;;;;;;;;;;;4968004;28;1135;-74
2022/09/08 11:26:26;;;;;;;;;;;;;;;;;;4968080;28;867;-73
2022/09/08 11:28:54;;;;;;;;;;;;;;;;;;4974493;28;1424;-75
2022/09/08 11:31:23;;;;;;;;;;;;;;;;;;4963815;28;1115;-72
2022/09/08 11:33:55;;;;;;;;;;;;;;;;;;4976634;28;2874;-73
2022/09/08 11:36:24;;;;;;;;;;;;;;;;;;4949758;28;1105;-72
2022/09/08 11:38:53;;;;;;;;;;;;;;;;;;4951466;28;1341;-73
2022/09/08 11:41:37;;;;;;;;;;;;;;;;;;4968839;28;1902;-75
2022/09/08 11:44:08;;;;;;;;;;;;;;;;;;4958514;28;1069;-73
2022/09/08 11:46:42;;;;;;;;;;;;;;;;;;4968274;28;1402;-74
2022/09/08 11:49:22;;;;;;;;;;;;;;;;;;4973032;28;1322;-75
2022/09/08 11:51:52;;;;;;;;;;;;;;;;;;4987915;28;1023;-75
2022/09/08 11:54:26;;;;;;;;;;;;;;;;;;4970118;28;1322;-76
2022/09/08 11:57:08;;;;;;;;;;;;;;;;;;4969421;28;1145;-74
2022/09/08 11:59:39;;;;;;;;;;;;;;;;;;5007176;28;1435;-74
2022/09/08 12:02:09;;;;;;;;;;;;;;;;;;4952892;28;1911;-76
2022/09/08 12:04:40;;;;;;;;;;;;;;;;;;5028213;28;1518;-73
2022/09/08 12:07:25;;;;;;;;;;;;;;;;;;5017028;28;1156;-74
2022/09/08 12:10:10;;;;;;;;;;;;;;;;;;4993534;28;1409;-75
2022/09/08 12:12:41;;;;;;;;;;;;;;;;;;4967733;28;1550;-74
2022/09/08 12:15:14;;;;;;;;;;;;;;;;;;5008461;28;1408;-75
2022/09/08 12:17:45;;;;;;;;;;;;;;;;;;5042405;28;1221;-76
2022/09/08 12:20:22;;;;;;;;;;;;;;;;;;5069734;28;1423;-79
2022/09/08 12:23:07;;;;;;;;;;;;;;;;;;5068991;28;1912;-74
2022/09/08 12:25:38;;;;;;;;;;;;;;;;;;5069561;28;956;-78
2022/09/08 12:28:10;;;;;;;;;;;;;;;;;;5017636;28;1411;-76
2022/09/08 12:30:41;;;;;;;;;;;;;;;;;;5000557;28;1426;-74
2022/09/08 12:33:11;;;;;;;;;;;;;;;;;;4968010;28;958;-75
2022/09/08 12:35:39;;;;;;;;;;;;;;;;;;4999712;28;1415;-76
2022/09/08 12:38:24;;;;;;;;;;;;;;;;;;5031731;28;1551;-75
2022/09/08 12:41:10;;;;;;;;;;;;;;;;;;5068230;28;1551;-75
2022/09/08 12:43:39;;;;;;;;;;;;;;;;;;5033918;28;1591;-75
2022/09/08 12:46:29;;;;;;;;;;;;;;;;;;5054062;28;1656;-74
2022/09/08 12:49:06;;;;;;;;;;;;;;;;;;4969630;28;1484;-74
2022/09/08 12:51:32;;;;;;;;;;;;;;;;;;4975897;28;1426;-75
2022/09/08 12:54:02;;;;;;;;;;;;;;;;;;4976026;28;1416;-75
2022/09/08 12:56:32;;;;;;;;;;;;;;;;;;4974035;28;1374;-75
2022/09/08 12:59:02;;;;;;;;;;;;;;;;;;4975414;28;1444;-75
2022/09/08 13:01:31;;;;;;;;;;;;;;;;;;4967404;28;2016;-76
2022/09/08 13:03:58;;;;;;;;;;;;;;;;;;4994967;28;1583;-74
2022/09/08 13:06:27;;;;;;;;;;;;;;;;;;4973196;28;1340;-74
2022/09/08 13:08:56;;;;;;;;;;;;;;;;;;4977076;28;1464;-75
2022/09/08 13:11:24;;;;;;;;;;;;;;;;;;4988482;28;1167;-75
2022/09/08 13:13:50;;;;;;;;;;;;;;;;;;5060808;28;1404;-74
2022/09/08 13:16:19;;;;;;;;;;;;;;;;;;5021772;28;1536;-75
2022/09/08 13:18:48;;;;;;;;;;;;;;;;;;4977677;28;1409;-75
2022/09/08 13:21:17;;;;;;;;;;;;;;;;;;4967159;28;1917;-75
2022/09/08 13:23:46;;;;;;;;;;;;;;;;;;5024873;28;1455;-74
2022/09/08 13:26:16;;;;;;;;;;;;;;;;;;5048227;28;1391;-76
2022/09/08 13:28:47;;;;;;;;;;;;;;;;;;5000628;28;1513;-75
2022/09/08 13:31:16;;;;;;;;;;;;;;;;;;5025686;28;1151;-76
2022/09/08 13:33:57;;;;;;;;;;;;;;;;;;4996194;28;1240;-73
2022/09/08 13:36:28;;;;;;;;;;;;;;;;;;4977166;28;1175;-74
2022/09/08 13:38:59;;;;;;;;;;;;;;;;;;5015890;28;1471;-75
2022/09/08 13:41:35;;;;;;;;;;;;;;;;;;5026959;28;1914;-75
2022/09/08 13:44:16;;;;;;;;;;;;;;;;;;4998398;28;1607;-75
2022/09/08 13:46:44;;;;;;;;;;;;;;;;;;5026239;28;1415;-75
2022/09/08 13:49:15;;;;;;;;;;;;;;;;;;5000804;28;1531;-74
2022/09/08 13:51:52;;;;;;;;;;;;;;;;;;5026676;28;1397;-73
2022/09/08 13:54:23;;;;;;;;;;;;;;;;;;5011526;28;1480;-78
2022/09/08 13:56:59;;;;;;;;;;;;;;;;;;4989923;28;1103;-73
2022/09/08 13:59:27;;;;;;;;;;;;;;;;;;4981901;28;1435;-74
2022/09/08 14:01:53;;;;;;;;;;;;;;;;;;4967691;28;1962;-75
2022/09/08 14:04:25;;;;;;;;;;;;;;;;;;5027497;28;1408;-74
2022/09/08 14:06:53;;;;;;;;;;;;;;;;;;5029556;28;1159;-75
2022/09/08 14:09:20;;;;;;;;;;;;;;;;;;4979595;28;1327;-75
2022/09/08 14:11:47;;;;;;;;;;;;;;;;;;4971940;28;1428;-76
2022/09/08 14:14:33;;;;;;;;;;;;;;;;;;5008295;28;1409;-77
2022/09/08 14:17:05;;;;;;;;;;;;;;;;;;5010142;28;1421;-76
2022/09/08 14:19:36;;;;;;;;;;;;;;;;;;5029791;28;1543;-77
2022/09/08 14:22:09;;;;;;;;;;;;;;;;;;5071462;28;1914;-76
2022/09/08 14:24:37;;;;;;;;;;;;;;;;;;4957969;28;1503;-76
2022/09/08 14:27:05;;;;;;;;;;;;;;;;;;4969610;28;1773;-75
2022/09/08 14:29:46;;;;;;;;;;;;;;;;;;4995028;28;1579;-78
2022/09/08 14:32:20;;;;;;;;;;;;;;;;;;4946991;28;1160;-75
2022/09/08 14:34:56;;;;;;;;;;;;;;;;;;4957026;28;1126;-76
2022/09/08 14:37:26;;;;;;;;;;;;;;;;;;4968758;28;1442;-77
2022/09/08 14:39:54;;;;;;;;;;;;;;;;;;5011611;28;1562;-73
2022/09/08 14:42:21;;;;;;;;;;;;;;;;;;4996626;28;1918;-79
2022/09/08 14:44:49;;;;;;;;;;;;;;;;;;5007340;28;1691;-74
2022/09/08 14:47:26;;;;;;;;;;;;;;;;;;5068652;28;1167;-74
2022/09/08 14:50:15;;;;;;;;;;;;;;;;;;5043551;28;1461;-76
2022/09/08 14:53:09;;;;;;;;;;;;;;;;;;4967022;28;1492;-76
2022/09/08 14:55:37;;;;;;;;;;;;;;;;;;4987200;28;1171;-74
2022/09/08 14:58:25;;;;;;;;;;;;;;;;;;4970083;28;1542;-76
2022/09/08 15:00:53;;;;;;;;;;;;;;;;;;4985215;28;1417;-74
2022/09/08 15:03:20;;;;;;;;;;;;;;;;;;5038376;28;1942;-79
2022/09/08 15:05:47;;;;;;;;;;;;;;;;;;5043630;28;1446;-75
2022/09/08 15:08:15;;;;;;;;;;;;;;;;;;4977690;28;1464;-74
2022/09/08 15:10:45;;;;;;;;;;;;;;;;;;5005757;28;1812;-74
2022/09/08 15:13:15;;;;;;;;;;;;;;;;;;5063187;28;1151;-76
2022/09/08 15:15:42;;;;;;;;;;;;;;;;;;5032540;28;1395;-76
2022/09/08 15:18:20;;;;;;;;;;;;;;;;;;5009695;28;1448;-76
2022/09/08 15:20:47;;;;;;;;;;;;;;;;;;5005046;28;1436;-76
2022/09/08 15:23:20;;;;;;;;;;;;;;;;;;5028165;28;1972;-74
2022/09/08 15:25:50;;;;;;;;;;;;;;;;;;5002242;28;1416;-75
2022/09/08 15:28:20;;;;;;;;;;;;;;;;;;5011831;28;1446;-75
2022/09/08 15:30:47;;;;;;;;;;;;;;;;;;4999500;28;1426;-76
2022/09/08 15:33:13;;;;;;;;;;;;;;;;;;5007235;28;1408;-76
2022/09/08 15:35:44;;;;;;;;;;;;;;;;;;5004596;28;1394;-75
2022/09/08 15:38:11;;;;;;;;;;;;;;;;;;5028979;28;1226;-76
2022/09/08 15:40:38;;;;;;;;;;;;;;;;;;5070462;28;1349;-75
2022/09/08 15:43:07;;;;;;;;;;;;;;;;;;5070375;28;1892;-75
2022/09/08 15:45:47;;;;;;;;;;;;;;;;;;5020447;28;1411;-75
2022/09/08 15:48:14;;;;;;;;;;;;;;;;;;5028476;28;1186;-75
2022/09/08 15:50:44;;;;;;;;;;;;;;;;;;5070360;28;1250;-76
2022/09/08 15:53:19;;;;;;;;;;;;;;;;;;5022307;28;1475;-75
2022/09/08 15:55:53;;;;;;;;;;;;;;;;;;5028029;28;1283;-74
2022/09/08 15:58:26;;;;;;;;;;;;;;;;;;5052580;28;1268;-75
2022/09/08 16:00:54;;;;;;;;;;;;;;;;;;4992332;28;1260;-76
2022/09/08 16:03:35;;;;;;;;;;;;;;;;;;4964556;28;1931;-75
2022/09/08 16:06:03;;;;;;;;;;;;;;;;;;5017709;28;1392;-75
2022/09/08 16:08:33;;;;;;;;;;;;;;;;;;4990607;28;1424;-75
2022/09/08 16:11:02;;;;;;;;;;;;;;;;;;4952280;28;1314;-75
2022/09/08 16:13:29;;;;;;;;;;;;;;;;;;4984276;28;1352;-74
2022/09/08 16:15:58;;;;;;;;;;;;;;;;;;5006751;28;1455;-75
2022/09/08 16:18:29;;;;;;;;;;;;;;;;;;4982383;28;1472;-74
2022/09/08 16:20:58;;;;;;;;;;;;;;;;;;4993179;28;1496;-75
2022/09/08 16:23:26;;;;;;;;;;;;;;;;;;4953534;28;1970;-73
2022/09/08 16:25:58;;;;;;;;;;;;;;;;;;4967867;28;1051;-74
2022/09/08 16:28:28;;;;;;;;;;;;;;;;;;5008458;28;1486;-74
2022/09/08 16:31:04;;;;;;;;;;;;;;;;;;5033622;28;1173;-73
2022/09/08 16:33:30;;;;;;;;;;;;;;;;;;5069230;28;596;-75
2022/09/08 16:36:02;;;;;;;;;;;;;;;;;;5069269;28;1106;-75
2022/09/08 16:38:33;;;;;;;;;;;;;;;;;;5054172;28;1519;-73
2022/09/08 16:41:02;;;;;;;;;;;;;;;;;;4994720;28;1128;-73
2022/09/08 16:43:29;;;;;;;;;;;;;;;;;;5068755;28;1977;-73
2022/09/08 16:45:59;;;;;;;;;;;;;;;;;;5068752;28;782;-73
2022/09/08 16:48:26;;;;;;;;;;;;;;;;;;5036381;28;1481;-72
2022/09/08 16:51:10;;;;;;;;;;;;;;;;;;5008963;28;1178;-73
2022/09/08 16:53:38;;;;;;;;;;;;;;;;;;5059067;28;1192;-72
2022/09/08 16:56:07;;;;;;;;;;;;;;;;;;4972389;28;1417;-74
2022/09/08 16:58:35;;;;;;;;;;;;;;;;;;5018532;28;1717;-73
2022/09/08 17:01:11;;;;;;;;;;;;;;;;;;5068850;28;1083;-71
2022/09/08 17:03:38;;;;;;;;;;;;;;;;;;5024285;28;1918;-73
2022/09/08 17:06:11;;;;;;;;;;;;;;;;;;5058467;28;1162;-73
2022/09/08 17:08:42;;;;;;;;;;;;;;;;;;5027354;28;1470;-73
2022/09/08 17:11:09;;;;;;;;;;;;;;;;;;4987287;28;1483;-71
2022/09/08 17:13:35;;;;;;;;;;;;;;;;;;5005293;28;1414;-74
2022/09/08 17:16:22;;;;;;;;;;;;;;;;;;5000541;28;1394;-73
2022/09/08 17:18:52;;;;;;;;;;;;;;;;;;5024894;28;1395;-73
2022/09/08 17:21:37;;;;;;;;;;;;;;;;;;5028796;28;1227;-74
2022/09/08 17:24:07;;;;;;;;;;;;;;;;;;5072448;28;1918;-72
2022/09/08 17:26:34;;;;;;;;;;;;;;;;;;5072460;28;694;-73
2022/09/08 17:29:14;;;;;;;;;;;;;;;;;;4984239;28;1472;-73
2022/09/08 17:31:40;;;;;;;;;;;;;;;;;;4971918;28;1461;-72